Time;durP1;ratioP1;P1;durP2;ratioP2;P2;SDS_P1;SDS_P2;PMS_P1;PMS_P2;Temp;Humidity;BMP_temperature;BMP_pressure;BME280_temperature;BME280_humidity;BME280_pressure;Samples;Min_cycle;Max_cycle;Signal;HPM_P1;HPM_P2
2021/06/13 00:00:46;;;;;;;5.45;4.10;;;11.50;78.80;;;;;;5042384;28;20530;-69
2021/06/13 00:03:13;;;;;;;8.38;5.18;;;11.70;78.20;;;;;;5039004;28;20040;-67
2021/06/13 00:05:40;;;;;;;17.05;8.32;;;11.90;77.20;;;;;;5036863;28;20041;-69
2021/06/13 00:08:06;;;;;;;8.55;3.90;;;12.10;76.20;;;;;;5045106;28;20428;-70
2021/06/13 00:10:34;;;;;;;5.78;3.50;;;12.30;75.50;;;;;;5042302;28;20021;-71
2021/06/13 00:13:01;;;;;;;5.88;4.35;;;12.50;75.70;;;;;;5025225;28;20036;-70
2021/06/13 00:15:28;;;;;;;4.38;2.63;;;12.60;74.70;;;;;;5026706;28;20032;-74
2021/06/13 00:17:56;;;;;;;3.92;2.92;;;12.70;74.20;;;;;;5038994;28;20528;-70
2021/06/13 00:20:28;;;;;;;3.28;2.30;;;12.90;73.90;;;;;;5045879;28;20849;-77
2021/06/13 00:22:55;;;;;;;4.85;2.35;;;13.20;71.70;;;;;;5036837;28;20100;-68
2021/06/13 00:25:23;;;;;;;11.93;9.18;;;13.40;70.80;;;;;;5052781;28;20072;-75
2021/06/13 00:27:50;;;;;;;20.17;13.93;;;13.60;69.70;;;;;;5047997;28;20044;-73
2021/06/13 00:30:18;;;;;;;10.50;7.15;;;13.80;73.40;;;;;;5043432;28;20041;-66
2021/06/13 00:32:45;;;;;;;14.15;8.52;;;14.20;73.40;;;;;;5045639;28;20032;-69
2021/06/13 00:35:12;;;;;;;8.95;5.32;;;14.50;71.20;;;;;;5042011;28;20171;-73
2021/06/13 00:37:40;;;;;;;19.27;11.80;;;14.90;68.70;;;;;;5039333;28;20033;-67
2021/06/13 00:40:08;;;;;;;8.10;4.68;;;15.20;69.10;;;;;;5042011;28;20033;-67
2021/06/13 00:42:36;;;;;;;8.93;4.57;;;15.30;66.80;;;;;;5037127;28;20028;-73
2021/06/13 00:45:05;;;;;;;14.50;10.60;;;15.40;65.00;;;;;;5046717;28;20376;-73
2021/06/13 00:47:32;;;;;;;14.15;10.55;;;15.50;63.40;;;;;;5042095;28;20029;-72
2021/06/13 00:50:00;;;;;;;7.60;4.97;;;15.60;62.70;;;;;;5048342;28;20060;-67
2021/06/13 00:52:27;;;;;;;5.85;3.05;;;15.60;61.40;;;;;;5040143;28;20079;-66
2021/06/13 00:54:54;;;;;;;8.73;4.70;;;15.60;61.20;;;;;;5037432;28;20068;-69
2021/06/13 00:57:21;;;;;;;5.95;3.75;;;15.60;62.60;;;;;;5034493;28;20437;-70
2021/06/13 00:59:48;;;;;;;11.50;6.22;;;15.80;61.70;;;;;;5033839;28;20502;-65
2021/06/13 01:02:15;;;;;;;8.27;5.32;;;16.00;65.90;;;;;;5027309;28;20116;-66
2021/06/13 01:04:42;;;;;;;6.80;4.32;;;16.20;63.70;;;;;;5027059;28;20049;-66
2021/06/13 01:07:37;;;;;;;15.18;7.38;;;16.30;60.60;;;;;;5029907;28;20028;-67
2021/06/13 01:10:13;;;;;;;15.95;6.30;;;16.30;59.60;;;;;;5020792;28;20031;-70
2021/06/13 01:12:51;;;;;;;8.88;4.15;;;16.40;60.30;;;;;;4663799;28;10000500;-66
2021/06/13 01:15:23;;;;;;;13.90;6.05;;;16.50;56.60;;;;;;5020001;28;20044;-70
2021/06/13 01:18:12;;;;;;;17.52;8.95;;;16.50;57.30;;;;;;5029041;28;20017;-67
2021/06/13 01:20:46;;;;;;;12.27;4.38;;;16.70;57.90;;;;;;5028475;28;20396;-69
2021/06/13 01:23:34;;;;;;;7.25;3.13;;;16.80;56.20;;;;;;5029976;28;20149;-69
2021/06/13 01:26:38;;;;;;;5.05;1.95;;;16.90;55.20;;;;;;5007310;28;20044;-67
2021/06/13 01:29:18;;;;;;;4.50;2.40;;;16.90;56.60;;;;;;5025429;28;20025;-66
2021/06/13 01:31:51;;;;;;;3.03;1.83;;;17.00;56.60;;;;;;5029381;28;20064;-67
2021/06/13 01:34:35;;;;;;;;;;;17.20;54.20;;;;;;5028599;28;20460;-66
2021/06/13 01:37:09;;;;;;;6.07;2.75;;;17.20;54.10;;;;;;5030432;28;19917;-67
2021/06/13 01:39:39;;;;;;;4.45;2.35;;;17.20;55.10;;;;;;5030827;28;20060;-69
2021/06/13 01:42:07;;;;;;;3.25;1.75;;;17.30;56.00;;;;;;5024779;28;20025;-65
2021/06/13 01:44:35;;;;;;;5.30;1.50;;;17.50;54.80;;;;;;5025531;28;20033;-70
2021/06/13 01:47:04;;;;;;;3.70;2.00;;;17.50;53.70;;;;;;5010016;28;20033;-69
2021/06/13 01:49:33;;;;;;;3.33;1.67;;;17.50;55.10;;;;;;5025891;28;20025;-68
2021/06/13 01:52:01;;;;;;;2.03;1.33;;;17.60;54.90;;;;;;5027151;28;20749;-66
2021/06/13 01:54:31;;;;;;;3.50;1.42;;;17.70;53.70;;;;;;5027728;28;20025;-64
2021/06/13 01:56:59;;;;;;;1.42;1.08;;;17.90;53.00;;;;;;5027803;28;20049;-66
2021/06/13 01:59:27;;;;;;;1.50;1.08;;;17.90;52.60;;;;;;5021447;28;20108;-65
2021/06/13 02:01:58;;;;;;;2.00;1.17;;;17.70;52.90;;;;;;5032805;28;20061;-64
2021/06/13 02:04:29;;;;;;;1.45;0.93;;;17.60;53.10;;;;;;5037046;28;20669;-64
2021/06/13 02:06:58;;;;;;;6.47;1.42;;;17.50;53.00;;;;;;5029063;28;20064;-66
2021/06/13 02:09:28;;;;;;;9.45;1.63;;;17.40;53.40;;;;;;5026712;28;20051;-65
2021/06/13 02:11:59;;;;;;;9.43;3.40;;;17.60;54.20;;;;;;5018655;28;20098;-71
2021/06/13 02:14:27;;;;;;;4.80;2.05;;;17.70;54.00;;;;;;5034644;28;20072;-73
2021/06/13 02:16:55;;;;;;;3.25;2.10;;;17.70;53.40;;;;;;5033644;28;20089;-67
2021/06/13 02:19:24;;;;;;;1.17;0.90;;;17.70;54.10;;;;;;5030788;28;20041;-68
2021/06/13 02:21:56;;;;;;;3.65;1.67;;;17.70;53.30;;;;;;5034321;28;20029;-65
2021/06/13 02:24:33;;;;;;;4.53;1.02;;;17.70;54.10;;;;;;5037555;28;20037;-65
2021/06/13 02:27:01;;;;;;;1.85;1.30;;;17.70;54.60;;;;;;5038103;28;20041;-69
2021/06/13 02:29:30;;;;;;;4.18;1.50;;;17.90;54.60;;;;;;5026821;28;20398;-69
2021/06/13 02:31:59;;;;;;;3.45;1.02;;;18.10;52.40;;;;;;5032389;28;20025;-68
2021/06/13 02:34:29;;;;;;;5.53;2.10;;;18.10;53.40;;;;;;5034286;28;20022;-65
2021/06/13 02:36:59;;;;;;;4.03;1.65;;;18.20;54.30;;;;;;5034184;28;20052;-64
2021/06/13 02:39:26;;;;;;;5.30;1.30;;;18.10;52.80;;;;;;5032485;28;20085;-65
2021/06/13 02:41:53;;;;;;;5.43;1.48;;;18.00;52.20;;;;;;5016539;28;21569;-62
2021/06/13 02:44:22;;;;;;;1.75;0.70;;;18.00;52.60;;;;;;5038320;28;20045;-65
2021/06/13 02:46:49;;;;;;;2.13;1.15;;;18.00;52.20;;;;;;5035134;28;20037;-65
2021/06/13 02:49:16;;;;;;;1.75;0.82;;;18.10;52.00;;;;;;5033155;28;20021;-72
2021/06/13 02:51:55;;;;;;;2.20;0.80;;;18.20;51.60;;;;;;5035269;28;20574;-68
2021/06/13 02:54:24;;;;;;;1.42;0.75;;;18.20;51.80;;;;;;5033503;28;20025;-70
2021/06/13 02:56:58;;;;;;;1.40;0.63;;;18.10;51.90;;;;;;5035375;28;20535;-65
2021/06/13 02:59:36;;;;;;;1.05;0.80;;;18.20;52.30;;;;;;5033457;28;20071;-68
2021/06/13 03:02:07;;;;;;;1.73;0.90;;;18.30;52.70;;;;;;5033621;28;20037;-66
2021/06/13 03:04:35;;;;;;;0.88;0.60;;;18.40;51.90;;;;;;5030930;28;20116;-66
2021/06/13 03:07:03;;;;;;;1.98;0.57;;;18.50;51.70;;;;;;5033805;28;20060;-66
2021/06/13 03:09:35;;;;;;;1.58;0.90;;;18.60;50.50;;;;;;5031698;28;20052;-67
2021/06/13 03:12:04;;;;;;;2.33;0.40;;;18.50;50.00;;;;;;5034388;28;20037;-67
2021/06/13 03:14:32;;;;;;;4.10;0.60;;;18.50;51.20;;;;;;5031031;28;20068;-67
2021/06/13 03:17:00;;;;;;;4.35;1.15;;;18.70;51.10;;;;;;5030746;28;20038;-67
2021/06/13 03:19:29;;;;;;;1.10;0.40;;;18.60;50.70;;;;;;5023675;28;20018;-67
2021/06/13 03:21:58;;;;;;;2.17;1.05;;;18.70;49.90;;;;;;5030438;28;20097;-68
2021/06/13 03:24:27;;;;;;;2.05;0.75;;;18.60;49.70;;;;;;5030443;28;20060;-66
2021/06/13 03:26:55;;;;;;;1.88;0.73;;;18.70;50.00;;;;;;5030874;28;20419;-65
2021/06/13 03:29:25;;;;;;;1.63;1.40;;;18.80;49.20;;;;;;5030434;28;20017;-67
2021/06/13 03:31:52;;;;;;;0.80;0.50;;;18.70;49.80;;;;;;5029256;28;20028;-65
2021/06/13 03:34:19;;;;;;;0.95;0.63;;;18.70;49.10;;;;;;5030025;28;20018;-66
2021/06/13 03:36:47;;;;;;;1.17;0.60;;;18.60;50.70;;;;;;5030012;28;20028;-70
2021/06/13 03:39:15;;;;;;;0.90;0.63;;;18.60;49.40;;;;;;5029843;28;20123;-67
2021/06/13 03:41:43;;;;;;;0.50;0.35;;;18.40;49.80;;;;;;5030045;28;20087;-67
2021/06/13 03:44:10;;;;;;;0.77;0.40;;;18.50;50.80;;;;;;5030391;28;20105;-69
2021/06/13 03:46:38;;;;;;;3.10;0.73;;;18.60;49.50;;;;;;5030014;28;20025;-65
2021/06/13 03:49:06;;;;;;;3.40;0.68;;;18.60;49.30;;;;;;5030193;28;20021;-65
2021/06/13 03:51:33;;;;;;;4.72;0.95;;;18.60;48.70;;;;;;5029031;28;20030;-66
2021/06/13 03:54:00;;;;;;;4.38;0.40;;;18.60;48.70;;;;;;5022968;28;20569;-69
2021/06/13 03:56:51;;;;;;;2.47;0.60;;;18.50;49.40;;;;;;5029434;28;20033;-65
2021/06/13 03:59:27;;;;;;;3.20;0.40;;;18.60;49.10;;;;;;5029444;28;20018;-66
2021/06/13 04:01:56;;;;;;;3.35;0.47;;;18.70;49.00;;;;;;5029365;28;20022;-69
2021/06/13 04:04:25;;;;;;;2.20;0.40;;;18.90;48.00;;;;;;5027864;28;20053;-66
2021/06/13 04:06:53;;;;;;;1.90;0.77;;;18.70;48.90;;;;;;5030603;28;20022;-69
2021/06/13 04:09:21;;;;;;;2.53;1.00;;;18.60;49.60;;;;;;5029689;28;20067;-67
2021/06/13 04:11:51;;;;;;;3.47;1.67;;;18.80;49.40;;;;;;5029435;28;20021;-69
2021/06/13 04:14:18;;;;;;;2.53;1.70;;;18.80;48.50;;;;;;5029164;28;20025;-67
2021/06/13 04:16:49;;;;;;;4.80;1.35;;;18.90;48.00;;;;;;5028977;28;20017;-66
2021/06/13 04:19:17;;;;;;;2.95;0.40;;;18.80;49.40;;;;;;5011665;28;20032;-70
2021/06/13 04:21:45;;;;;;;0.40;0.30;;;18.80;48.30;;;;;;5029264;28;20025;-69
2021/06/13 04:24:16;;;;;;;2.10;0.50;;;18.80;49.40;;;;;;5029624;28;20112;-66
2021/06/13 04:26:44;;;;;;;1.27;0.50;;;18.90;48.50;;;;;;5021480;28;20644;-70
2021/06/13 04:29:12;;;;;;;1.45;0.30;;;18.80;48.40;;;;;;5028970;28;20030;-66
2021/06/13 04:31:40;;;;;;;1.10;0.40;;;18.90;48.00;;;;;;5028446;28;20021;-68
2021/06/13 04:34:07;;;;;;;1.50;0.70;;;18.80;48.70;;;;;;5028471;28;20029;-70
2021/06/13 04:36:34;;;;;;;0.80;0.40;;;18.80;48.80;;;;;;5028049;28;20032;-68
2021/06/13 04:39:01;;;;;;;2.72;0.80;;;18.80;48.30;;;;;;5028613;28;20488;-69
2021/06/13 04:41:33;;;;;;;0.63;0.45;;;18.90;48.50;;;;;;5028386;28;20024;-66
2021/06/13 04:44:01;;;;;;;0.30;0.22;;;18.80;48.60;;;;;;5020629;28;20025;-65
2021/06/13 04:46:28;;;;;;;0.88;0.40;;;18.80;49.30;;;;;;5027301;28;20025;-66
2021/06/13 04:48:56;;;;;;;1.00;0.40;;;18.90;48.50;;;;;;5027657;28;20032;-66
2021/06/13 04:51:26;;;;;;;2.30;0.50;;;18.80;49.10;;;;;;5027703;28;20033;-66
2021/06/13 04:53:59;;;;;;;0.40;0.40;;;18.80;48.70;;;;;;5028042;28;20026;-68
2021/06/13 04:56:54;;;;;;;0.85;0.40;;;18.90;49.00;;;;;;5027795;28;20559;-67
2021/06/13 04:59:21;;;;;;;1.33;0.47;;;18.90;49.00;;;;;;5012810;28;20032;-69
2021/06/13 05:01:48;;;;;;;1.30;0.70;;;19.00;48.70;;;;;;5027044;28;20025;-66
2021/06/13 05:04:16;;;;;;;0.30;0.30;;;18.80;48.80;;;;;;5025910;28;20037;-68
2021/06/13 05:06:44;;;;;;;0.90;0.50;;;18.80;48.70;;;;;;5027146;28;20025;-65
2021/06/13 05:09:12;;;;;;;3.80;0.68;;;18.90;48.70;;;;;;5027543;28;20025;-68
2021/06/13 05:11:39;;;;;;;0.88;0.40;;;19.10;49.60;;;;;;5026824;28;20145;-68
2021/06/13 05:14:07;;;;;;;0.77;0.28;;;19.40;48.00;;;;;;5027579;28;20025;-67
2021/06/13 05:16:34;;;;;;;1.23;0.40;;;19.70;46.40;;;;;;5027495;28;20383;-69
2021/06/13 05:19:01;;;;;;;0.70;0.47;;;19.80;47.60;;;;;;5027731;28;20025;-67
2021/06/13 05:21:28;;;;;;;3.17;0.70;;;20.00;46.70;;;;;;5026858;28;20108;-65
2021/06/13 05:23:55;;;;;;;0.40;0.40;;;19.90;46.90;;;;;;5026867;28;20368;-67
2021/06/13 05:26:22;;;;;;;0.57;0.45;;;19.90;46.90;;;;;;5027255;28;20025;-66
2021/06/13 05:28:49;;;;;;;0.70;0.45;;;19.90;46.30;;;;;;5026760;28;20028;-65
2021/06/13 05:31:16;;;;;;;0.50;0.50;;;20.00;46.80;;;;;;5019930;28;20112;-67
2021/06/13 05:33:43;;;;;;;0.50;0.30;;;20.00;46.00;;;;;;5026846;28;20052;-67
2021/06/13 05:36:10;;;;;;;0.52;0.30;;;20.00;46.10;;;;;;5026149;28;20494;-67
2021/06/13 05:38:40;;;;;;;0.52;0.30;;;20.20;45.20;;;;;;5027211;28;20018;-66
2021/06/13 05:41:08;;;;;;;1.00;0.40;;;20.10;45.90;;;;;;5026785;28;20475;-66
2021/06/13 05:43:35;;;;;;;0.52;0.38;;;20.10;45.90;;;;;;5026347;28;20029;-67
2021/06/13 05:46:03;;;;;;;0.82;0.30;;;20.00;46.60;;;;;;5027060;28;20029;-67
2021/06/13 05:48:39;;;;;;;1.50;0.52;;;20.00;47.00;;;;;;4982786;28;10001161;-66
2021/06/13 05:51:06;;;;;;;1.33;0.30;;;19.80;47.60;;;;;;5021888;28;20244;-70
2021/06/13 05:53:33;;;;;;;1.85;0.30;;;19.20;47.30;;;;;;5023891;28;20033;-67
2021/06/13 05:56:00;;;;;;;0.77;0.43;;;18.60;49.00;;;;;;5024245;28;20025;-67
2021/06/13 05:58:27;;;;;;;0.60;0.40;;;18.20;50.10;;;;;;5023785;28;20028;-66
2021/06/13 06:00:54;;;;;;;1.42;0.45;;;17.80;50.90;;;;;;5023567;28;20026;-69
2021/06/13 06:03:22;;;;;;;1.35;0.30;;;17.50;52.80;;;;;;5023066;28;20026;-65
2021/06/13 06:05:51;;;;;;;0.70;0.40;;;17.20;53.70;;;;;;5018016;28;20399;-67
2021/06/13 06:08:18;;;;;;;8.20;1.13;;;17.10;53.80;;;;;;5024262;28;20014;-69
2021/06/13 06:10:46;;;;;;;2.75;0.60;;;17.00;54.70;;;;;;5006509;28;20029;-69
2021/06/13 06:13:13;;;;;;;4.90;0.85;;;16.80;54.40;;;;;;5023774;28;20060;-66
2021/06/13 06:15:41;;;;;;;3.03;0.70;;;16.80;54.50;;;;;;5023166;28;20048;-66
2021/06/13 06:18:09;;;;;;;2.97;0.82;;;16.80;54.40;;;;;;5024019;28;20017;-66
2021/06/13 06:20:36;;;;;;;2.63;0.60;;;16.80;54.80;;;;;;5024222;28;20040;-67
2021/06/13 06:23:04;;;;;;;12.35;1.10;;;16.70;54.90;;;;;;5017128;28;20052;-67
2021/06/13 06:25:31;;;;;;;5.65;0.80;;;16.50;55.40;;;;;;5023548;28;20415;-69
2021/06/13 06:27:59;;;;;;;3.33;0.73;;;16.40;56.30;;;;;;5023330;28;20380;-68
2021/06/13 06:30:28;;;;;;;1.65;0.65;;;16.20;56.60;;;;;;5023702;28;20067;-68
2021/06/13 06:32:57;;;;;;;3.00;0.60;;;16.00;56.80;;;;;;5023356;28;20729;-67
2021/06/13 06:35:25;;;;;;;1.05;0.70;;;15.90;57.50;;;;;;5024106;28;20100;-68
2021/06/13 06:37:53;;;;;;;3.25;0.70;;;15.70;58.50;;;;;;5023889;28;20132;-67
2021/06/13 06:40:19;;;;;;;2.40;0.60;;;15.60;57.70;;;;;;5016289;28;20028;-68
2021/06/13 06:42:46;;;;;;;1.60;0.73;;;15.40;59.20;;;;;;5022985;28;20017;-67
2021/06/13 06:45:14;;;;;;;4.10;1.02;;;15.20;60.10;;;;;;5023053;28;20044;-66
2021/06/13 06:47:42;;;;;;;4.97;1.20;;;15.00;61.90;;;;;;5026696;28;20035;-67
2021/06/13 06:50:11;;;;;;;1.90;0.98;;;14.80;63.30;;;;;;5026960;28;20437;-67
2021/06/13 06:52:38;;;;;;;2.28;0.90;;;14.60;63.20;;;;;;5027105;28;20048;-68
2021/06/13 06:55:08;;;;;;;3.95;0.98;;;14.40;64.20;;;;;;5026840;28;20022;-67
2021/06/13 06:57:37;;;;;;;2.45;1.75;;;14.20;65.40;;;;;;5018785;28;20423;-66
2021/06/13 07:00:06;;;;;;;3.83;0.90;;;14.00;65.60;;;;;;5026846;28;20014;-67
2021/06/13 07:02:34;;;;;;;3.33;1.10;;;14.00;66.30;;;;;;5024306;28;20021;-69
2021/06/13 07:05:03;;;;;;;1.95;0.93;;;13.90;66.50;;;;;;5060273;22;20048;-69
2021/06/13 07:07:30;;;;;;;1.17;0.50;;;13.70;66.80;;;;;;5089250;28;20131;-67
2021/06/13 07:09:57;;;;;;;0.95;0.60;;;13.60;67.60;;;;;;5090057;28;20697;-67
2021/06/13 07:12:25;;;;;;;1.05;0.57;;;13.50;66.90;;;;;;5088478;28;20039;-67
2021/06/13 07:14:53;;;;;;;1.30;0.93;;;13.50;66.90;;;;;;5088738;28;20016;-68
2021/06/13 07:17:19;;;;;;;1.27;0.80;;;13.30;67.20;;;;;;5095968;28;20031;-69
2021/06/13 07:19:46;;;;;;;2.40;1.05;;;13.20;67.40;;;;;;5089783;28;20069;-67
2021/06/13 07:22:13;;;;;;;3.78;1.45;;;13.10;67.30;;;;;;5089275;28;20040;-67
2021/06/13 07:24:40;;;;;;;2.00;1.40;;;13.00;67.70;;;;;;5089662;28;20486;-68
2021/06/13 07:27:07;;;;;;;2.67;1.23;;;12.90;67.90;;;;;;5089807;28;20482;-68
2021/06/13 07:29:34;;;;;;;1.80;1.02;;;12.90;67.30;;;;;;5089346;28;20031;-68
2021/06/13 07:32:01;;;;;;;1.88;1.08;;;12.80;67.50;;;;;;5088906;28;20496;-67
2021/06/13 07:34:28;;;;;;;1.83;1.10;;;12.80;67.10;;;;;;5089358;28;20077;-68
2021/06/13 07:36:55;;;;;;;2.28;1.10;;;12.70;67.60;;;;;;5089414;28;20343;-67
2021/06/13 07:39:22;;;;;;;2.95;1.83;;;12.70;67.50;;;;;;5096212;28;20023;-66
2021/06/13 07:41:50;;;;;;;2.17;1.30;;;12.60;67.70;;;;;;5089019;28;20136;-66
2021/06/13 07:44:18;;;;;;;1.95;1.30;;;12.70;66.70;;;;;;5088817;28;20035;-66
2021/06/13 07:46:45;;;;;;;3.03;1.50;;;12.70;66.10;;;;;;5094518;28;20020;-68
2021/06/13 07:49:12;;;;;;;2.05;1.35;;;12.60;66.80;;;;;;5092267;28;20019;-66
2021/06/13 07:51:39;;;;;;;4.20;1.70;;;12.60;66.80;;;;;;5089165;28;20776;-68
2021/06/13 07:54:06;;;;;;;3.00;1.90;;;12.60;66.10;;;;;;5089469;28;20031;-66
2021/06/13 07:56:33;;;;;;;2.38;1.67;;;12.50;66.90;;;;;;5093142;28;20020;-68
2021/06/13 07:59:00;;;;;;;3.88;2.42;;;12.40;66.90;;;;;;5091412;28;20039;-68
2021/06/13 08:01:27;;;;;;;2.90;2.45;;;12.30;67.20;;;;;;5088231;28;20035;-68
2021/06/13 08:03:54;;;;;;;6.38;3.08;;;12.20;67.50;;;;;;5087455;28;20020;-66
2021/06/13 08:06:21;;;;;;;4.45;2.30;;;12.10;67.90;;;;;;5088796;28;20040;-66
2021/06/13 08:08:48;;;;;;;4.55;1.90;;;12.00;68.60;;;;;;5083165;28;20073;-66
2021/06/13 08:11:15;;;;;;;3.90;2.25;;;11.80;69.20;;;;;;5077960;28;20024;-67
2021/06/13 08:13:42;;;;;;;8.10;1.88;;;11.80;69.40;;;;;;5079376;28;20012;-67
2021/06/13 08:16:10;;;;;;;5.25;2.40;;;11.70;70.20;;;;;;5079220;28;20437;-66
2021/06/13 08:18:37;;;;;;;8.75;2.40;;;11.60;70.60;;;;;;5083449;28;20021;-67
2021/06/13 08:21:04;;;;;;;6.85;1.20;;;11.50;71.20;;;;;;5078901;28;20483;-66
2021/06/13 08:23:32;;;;;;;2.05;1.00;;;11.40;71.40;;;;;;5082054;28;20024;-67
2021/06/13 08:26:01;;;;;;;7.95;4.15;;;11.40;71.90;;;;;;5073644;28;20081;-67
2021/06/13 08:28:28;;;;;;;6.78;4.53;;;11.30;72.10;;;;;;5075096;28;20028;-66
2021/06/13 08:30:56;;;;;;;10.80;3.33;;;11.30;72.50;;;;;;5077224;28;20157;-67
2021/06/13 08:33:23;;;;;;;10.15;2.97;;;11.20;72.90;;;;;;5079083;28;20020;-67
2021/06/13 08:35:51;;;;;;;14.45;3.45;;;11.20;73.40;;;;;;5079707;28;20043;-66
2021/06/13 08:38:20;;;;;;;15.05;7.50;;;11.30;73.20;;;;;;5075628;28;20140;-66
2021/06/13 08:40:48;;;;;;;14.50;4.93;;;11.30;73.00;;;;;;5076883;28;20016;-68
2021/06/13 08:43:16;;;;;;;13.32;5.43;;;11.30;72.90;;;;;;5077317;28;20021;-67
2021/06/13 08:45:43;;;;;;;7.45;4.55;;;11.30;73.10;;;;;;5079898;28;20024;-66
2021/06/13 08:48:11;;;;;;;8.60;4.55;;;11.30;72.80;;;;;;5077349;28;20054;-66
2021/06/13 08:50:39;;;;;;;6.43;3.17;;;11.30;72.50;;;;;;5083424;28;20032;-66
2021/06/13 08:53:07;;;;;;;12.15;3.63;;;11.20;73.10;;;;;;5074199;28;20039;-67
2021/06/13 08:55:34;;;;;;;22.13;13.05;;;11.20;72.70;;;;;;5076897;28;20038;-66
2021/06/13 08:58:02;;;;;;;13.10;6.78;;;11.30;72.50;;;;;;5082646;28;20024;-66
2021/06/13 09:00:32;;;;;;;9.95;5.63;;;11.20;73.00;;;;;;5076645;28;20016;-67
2021/06/13 09:03:01;;;;;;;7.40;3.03;;;11.20;73.30;;;;;;5074949;28;20181;-66
2021/06/13 09:05:28;;;;;;;2.95;2.20;;;11.10;73.60;;;;;;5079824;28;20452;-67
2021/06/13 09:08:19;;;;;;;5.80;2.25;;;11.10;73.60;;;;;;5077372;28;20012;-67
2021/06/13 09:10:49;;;;;;;9.00;1.70;;;11.10;73.80;;;;;;5081906;28;20147;-67
2021/06/13 09:13:22;;;;;;;4.43;2.00;;;11.10;74.10;;;;;;5077276;28;20028;-67
2021/06/13 09:15:51;;;;;;;5.18;2.42;;;11.00;74.40;;;;;;5075308;28;20510;-67
2021/06/13 09:18:41;;;;;;;4.90;2.50;;;11.00;74.70;;;;;;5076222;28;20071;-68
2021/06/13 09:21:29;;;;;;;4.22;2.83;;;10.90;75.50;;;;;;5077248;28;20029;-66
2021/06/13 09:23:57;;;;;;;4.38;2.97;;;10.80;75.90;;;;;;5080727;28;20027;-67
2021/06/13 09:26:31;;;;;;;4.72;3.00;;;10.70;76.40;;;;;;5075526;28;20119;-67
2021/06/13 09:28:59;;;;;;;7.88;4.93;;;10.50;77.10;;;;;;5076922;28;20115;-66
2021/06/13 09:31:29;;;;;;;5.68;3.47;;;10.40;77.40;;;;;;5075545;28;20028;-66
2021/06/13 09:33:59;;;;;;;19.88;11.75;;;10.40;77.70;;;;;;5080948;28;20173;-66
2021/06/13 09:36:29;;;;;;;12.55;6.03;;;10.30;77.70;;;;;;5075639;28;20127;-67
2021/06/13 09:39:01;;;;;;;14.73;8.70;;;10.30;77.30;;;;;;5081627;28;20053;-66
2021/06/13 09:41:29;;;;;;;9.13;4.63;;;10.30;77.70;;;;;;5075963;28;20035;-66
2021/06/13 09:44:02;;;;;;;10.18;5.22;;;10.40;77.00;;;;;;5083133;28;20029;-66
2021/06/13 09:46:30;;;;;;;;;;;10.40;76.40;;;;;;5077530;28;20048;-66
2021/06/13 09:49:03;;;;;;;4.78;2.88;;;10.60;75.40;;;;;;5083214;28;19911;-65
2021/06/13 09:51:35;;;;;;;4.75;2.83;;;10.50;75.50;;;;;;5074927;28;20048;-66
2021/06/13 09:54:05;;;;;;;18.40;9.82;;;10.40;76.30;;;;;;5081185;28;20764;-67
2021/06/13 09:56:39;;;;;;;12.00;8.55;;;10.50;75.30;;;;;;5074881;28;20458;-67
2021/06/13 09:59:13;;;;;;;25.75;14.85;;;10.60;74.50;;;;;;5074177;28;20030;-67
2021/06/13 10:01:53;;;;;;;37.00;22.25;;;10.70;74.70;;;;;;5076813;28;20031;-67
2021/06/13 10:04:20;;;;;;;9.70;7.03;;;10.60;74.20;;;;;;5079762;28;20115;-67
2021/06/13 10:06:49;;;;;;;9.38;5.97;;;10.60;74.20;;;;;;5075742;28;20027;-67
2021/06/13 10:09:18;;;;;;;6.40;4.32;;;10.50;74.70;;;;;;5075207;28;20020;-67
2021/06/13 10:11:47;;;;;;;5.65;4.22;;;10.50;74.30;;;;;;5077746;28;20039;-67
2021/06/13 10:14:19;;;;;;;8.52;5.38;;;10.50;74.40;;;;;;5075202;28;20020;-68
2021/06/13 10:16:52;;;;;;;12.18;4.03;;;10.50;74.20;;;;;;5075778;28;20043;-66
2021/06/13 10:19:22;;;;;;;7.43;2.85;;;10.40;74.30;;;;;;5074732;28;20028;-67
2021/06/13 10:21:54;;;;;;;6.90;2.50;;;10.40;74.50;;;;;;5080693;28;20047;-68
2021/06/13 10:24:23;;;;;;;5.28;2.30;;;10.50;73.70;;;;;;5081161;28;20086;-67
2021/06/13 10:26:53;;;;;;;4.85;2.08;;;10.60;73.20;;;;;;5083660;28;20039;-66
2021/06/13 10:29:21;;;;;;;5.05;1.95;;;10.70;72.70;;;;;;5080398;28;20026;-67
2021/06/13 10:31:50;;;;;;;5.47;1.42;;;10.70;72.70;;;;;;5077006;28;20026;-67
2021/06/13 10:34:19;;;;;;;2.15;1.38;;;10.80;72.40;;;;;;5080477;28;20020;-66
2021/06/13 10:36:46;;;;;;;2.90;1.20;;;10.90;71.80;;;;;;5078887;28;20017;-66
2021/06/13 10:39:18;;;;;;;4.57;1.40;;;11.00;71.20;;;;;;5078936;28;20024;-66
2021/06/13 10:41:45;;;;;;;2.58;1.23;;;10.90;71.60;;;;;;5084483;28;20104;-66
2021/06/13 10:44:15;;;;;;;3.97;1.23;;;11.00;71.30;;;;;;5078936;28;20058;-66
2021/06/13 10:46:47;;;;;;;7.55;1.10;;;10.90;71.40;;;;;;5084403;28;20044;-66
2021/06/13 10:49:40;;;;;;;2.55;1.20;;;11.00;70.80;;;;;;5083028;28;20059;-66
2021/06/13 10:52:14;;;;;;;3.33;1.10;;;11.20;70.20;;;;;;5080057;28;20119;-66
2021/06/13 10:54:50;;;;;;;2.88;1.67;;;11.20;69.80;;;;;;5082234;28;20075;-66
2021/06/13 10:57:20;;;;;;;3.72;1.17;;;11.20;70.00;;;;;;5077642;28;20068;-68
2021/06/13 10:59:52;;;;;;;2.13;1.17;;;11.20;70.10;;;;;;5078847;28;20013;-68
2021/06/13 11:02:40;;;;;;;4.88;1.27;;;11.10;70.20;;;;;;5078307;28;20056;-67
2021/06/13 11:05:08;;;;;;;2.90;1.08;;;11.00;70.70;;;;;;5061888;28;20101;-66
2021/06/13 11:07:39;;;;;;;3.25;0.80;;;11.00;70.30;;;;;;5090965;27;20020;-66
2021/06/13 11:10:10;;;;;;;1.75;1.00;;;11.00;70.70;;;;;;5077720;28;20036;-68
2021/06/13 11:13:01;;;;;;;1.65;1.20;;;11.00;70.60;;;;;;5080536;28;20027;-66
2021/06/13 11:15:31;;;;;;;7.40;2.90;;;10.90;71.00;;;;;;5078186;28;20549;-67
2021/06/13 11:18:17;;;;;;;5.93;2.10;;;10.90;70.90;;;;;;5078688;28;20031;-66
2021/06/13 11:21:16;;;;;;;6.18;1.30;;;10.80;71.70;;;;;;5079921;28;20277;-67
2021/06/13 11:23:44;;;;;;;3.10;1.73;;;10.70;72.00;;;;;;5081180;28;20135;-67
2021/06/13 11:26:31;;;;;;;5.32;0.95;;;10.60;72.20;;;;;;5082542;28;20756;-68
2021/06/13 11:28:58;;;;;;;3.20;1.00;;;10.60;72.60;;;;;;5081845;28;20020;-68
2021/06/13 11:31:25;;;;;;;8.15;1.40;;;10.50;72.90;;;;;;5078863;28;20335;-66
2021/06/13 11:33:55;;;;;;;9.23;1.70;;;10.40;73.90;;;;;;5080166;28;20027;-67
2021/06/13 11:36:27;;;;;;;5.47;1.50;;;10.40;73.50;;;;;;5083875;28;20656;-68
2021/06/13 11:39:13;;;;;;;3.78;1.35;;;10.30;74.00;;;;;;5081564;28;20031;-66
2021/06/13 11:41:43;;;;;;;6.32;2.30;;;10.10;74.60;;;;;;5082864;28;20028;-66
2021/06/13 11:44:21;;;;;;;6.60;3.78;;;9.90;75.80;;;;;;5086238;28;20051;-65
2021/06/13 11:46:54;;;;;;;6.50;4.63;;;9.70;76.80;;;;;;5081074;28;20069;-68
2021/06/13 11:49:42;;;;;;;6.53;4.53;;;9.50;78.00;;;;;;5079834;28;20111;-67
2021/06/13 11:52:09;;;;;;;6.15;4.07;;;9.30;79.30;;;;;;5077107;28;20028;-68
2021/06/13 11:54:38;;;;;;;7.30;4.68;;;9.10;80.50;;;;;;5084548;28;20035;-68
2021/06/13 11:57:31;;;;;;;5.13;3.90;;;8.90;81.60;;;;;;5081099;28;20044;-69
2021/06/13 12:00:15;;;;;;;5.70;4.05;;;8.70;82.80;;;;;;5079013;28;20489;-66
2021/06/13 12:02:42;;;;;;;4.35;3.00;;;8.50;84.00;;;;;;5078479;28;20517;-67
2021/06/13 12:05:10;;;;;;;6.63;4.38;;;8.40;84.70;;;;;;5082592;28;20039;-66
2021/06/13 12:07:41;;;;;;;10.52;6.10;;;8.30;85.70;;;;;;5082553;28;20146;-67
2021/06/13 12:10:30;;;;;;;8.25;6.80;;;8.20;86.50;;;;;;5078028;28;20453;-67
2021/06/13 12:13:15;;;;;;;8.35;7.35;;;8.10;86.70;;;;;;5080722;28;20035;-66
2021/06/13 12:15:42;;;;;;;10.35;7.93;;;8.10;87.00;;;;;;5078151;28;20032;-66
2021/06/13 12:18:16;;;;;;;10.82;7.78;;;8.00;87.00;;;;;;5080319;28;20051;-67
2021/06/13 12:20:54;;;;;;;11.55;6.85;;;8.00;87.20;;;;;;5080298;28;20024;-67
2021/06/13 12:23:31;;;;;;;9.20;6.80;;;7.90;87.60;;;;;;5086076;28;20425;-66
2021/06/13 12:28:45;;;;;;;8.88;6.07;;;7.80;88.10;;;;;;5052986;28;20113;-66
2021/06/13 12:31:13;;;;;;;6.60;5.57;;;7.70;89.50;;;;;;5079652;28;20021;-67
2021/06/13 12:33:40;;;;;;;7.38;6.10;;;7.70;89.50;;;;;;5078782;28;20024;-68
2021/06/13 12:36:09;;;;;;;8.82;6.22;;;7.60;90.00;;;;;;5081806;28;20017;-67
2021/06/13 12:38:37;;;;;;;9.43;6.40;;;7.60;90.00;;;;;;5084131;28;20035;-67
2021/06/13 12:41:05;;;;;;;9.90;6.85;;;7.50;90.00;;;;;;5080882;28;20032;-68
2021/06/13 12:43:48;;;;;;;8.35;6.50;;;7.50;90.20;;;;;;5077151;28;20031;-67
2021/06/13 12:46:15;;;;;;;8.90;6.43;;;7.40;90.50;;;;;;5077999;28;20028;-68
2021/06/13 12:48:44;;;;;;;10.13;6.75;;;7.40;90.70;;;;;;5086536;28;20069;-67
2021/06/13 12:51:11;;;;;;;7.53;6.15;;;7.30;90.70;;;;;;5081429;28;20066;-66
2021/06/13 12:53:44;;;;;;;8.07;6.35;;;7.30;90.60;;;;;;5077113;28;20027;-66
2021/06/13 12:56:12;;;;;;;;;;;7.20;90.70;;;;;;5078516;28;20430;-67
2021/06/13 12:58:44;;;;;;;8.25;6.45;;;7.20;91.00;;;;;;5083869;28;19908;-66
2021/06/13 13:01:13;;;;;;;7.65;6.40;;;7.10;91.30;;;;;;5078795;28;20024;-68
2021/06/13 13:03:48;;;;;;;8.98;7.60;;;7.10;91.30;;;;;;5076492;28;20103;-68
2021/06/13 13:06:16;;;;;;;9.60;6.28;;;7.10;91.30;;;;;;5077671;28;20078;-68